Terminal Aerodrome Forecast
Issued by NWS Twin Cities, MN

Home | Current Version | Previous Version | Graphics & Text | Print | Product List | Glossary On
Versions: 1 2 3 4 5 6 7 8 9 10 11 12 13 14 15 16 17 18 19 20 21 22 23 24 25 26 27 28 29 30 31
000
FTUS43 KMPX 311331 AAA
TAFMSP
TAF AMD
KMSP 311331Z 3114/0118 17008KT P6SM SCT012
     FM311500 19014G22KT P6SM SKC
     FM311800 19017G25KT P6SM BKN250
     FM010100 18008KT P6SM SCT250
     FM011200 19006KT P6SM BKN120=

USA.gov is the U.S. government's official web portal to all federal, state and local government web resources and services.